Juniyah, Lebanon
Current Conditions -  °F | °C
As of 7:00 AM on Sunday 23 Nov 2014 (Local Time) from OLBA Reporting Station
Light Rain Light Rain  
Wind Chill: 57°   Ceiling: 7000
Heat Index: 57°   Visibility: 5mi
Dew Point: 52°   Wind: 3mph
Humidity: 82%   Direction: 160°SSE
Pressure: 30.03"   Gusts: NA
Location:  33.97°N, 35.63°E
Report Text: OLBA 230400Z 16003KT 050V200 8000 -RA SCT026 BKN070 14/11 Q1017 NOSIG
Loading
Personal Weather Stations






























Interactive Weather Map New forecast layout! Learn more

10-Day Weather Forecast

Advertisements
Track Severe Weather on mobile